KUIL/UIL METAR and TAF weather

Enter ICAO airport designator
Station Type Date Time Source
KUIL METAR 2019/09/20 09:53 UTC NOAA

KUIL 200953Z AUTO 08003KT 9SM FEW010 BKN026 12/12 A3007 RMK AO2 SLP181 T01170117


Station Type Date Time Source
KUIL Decoded METAR 2019/09/20 09:53 UTC NOAA

QUILLAYUTE STATE AIRPORT, WA, United States (KUIL) 47-56N 124-34W 54M
Sep 20, 2019 - 05:53 AM EDT / 2019.09.20 0953 UTC
Wind: from the E (080 degrees) at 3 MPH (3 KT):0
Visibility: 9 mile(s):0
Sky conditions: mostly cloudy
Temperature: 53.1 F (11.7 C)
Dew Point: 53.1 F (11.7 C)
Relative Humidity: 100%
Pressure (altimeter): 30.07 in. Hg (1018 hPa)
ob: KUIL 200953Z AUTO 08003KT 9SM FEW010 BKN026 12/12 A3007 RMK AO2 SLP181 T01170117
cycle: 10

Station Type Date Time Source
KUIL TAF UTC NOAA

Error!

Example: see airport list